sensor_id;sensor_type;location;lat;lon;timestamp;P1;durP1;ratioP1;P2;durP2;ratioP2
20138;SDS011;10230;51.502;10.800;2022-09-27T00:00:08;1.20;;;0.60;;
20138;SDS011;10230;51.502;10.800;2022-09-27T00:02:35;0.30;;;0.30;;
20138;SDS011;10230;51.502;10.800;2022-09-27T00:05:01;0.60;;;0.50;;
20138;SDS011;10230;51.502;10.800;2022-09-27T00:07:27;0.30;;;0.30;;
20138;SDS011;10230;51.502;10.800;2022-09-27T00:09:53;2.23;;;0.33;;
20138;SDS011;10230;51.502;10.800;2022-09-27T00:12:19;1.03;;;0.43;;
20138;SDS011;10230;51.502;10.800;2022-09-27T00:14:45;0.83;;;0.73;;
20138;SDS011;10230;51.502;10.800;2022-09-27T00:17:11;0.73;;;0.47;;
20138;SDS011;10230;51.502;10.800;2022-09-27T00:19:37;0.90;;;0.40;;
20138;SDS011;10230;51.502;10.800;2022-09-27T00:22:04;0.83;;;0.50;;
20138;SDS011;10230;51.502;10.800;2022-09-27T00:24:30;0.53;;;0.30;;
20138;SDS011;10230;51.502;10.800;2022-09-27T00:26:56;0.60;;;0.50;;
20138;SDS011;10230;51.502;10.800;2022-09-27T00:29:22;1.33;;;0.50;;
20138;SDS011;10230;51.502;10.800;2022-09-27T00:31:48;0.40;;;0.40;;
20138;SDS011;10230;51.502;10.800;2022-09-27T00:34:21;0.57;;;0.50;;
20138;SDS011;10230;51.502;10.800;2022-09-27T00:36:48;0.87;;;0.63;;
20138;SDS011;10230;51.502;10.800;2022-09-27T00:39:15;0.40;;;0.40;;
20138;SDS011;10230;51.502;10.800;2022-09-27T00:41:41;0.43;;;0.33;;
20138;SDS011;10230;51.502;10.800;2022-09-27T00:46:58;0.73;;;0.40;;
20138;SDS011;10230;51.502;10.800;2022-09-27T00:49:26;0.40;;;0.40;;
20138;SDS011;10230;51.502;10.800;2022-09-27T00:52:00;2.30;;;0.60;;
20138;SDS011;10230;51.502;10.800;2022-09-27T00:54:27;0.87;;;0.40;;
20138;SDS011;10230;51.502;10.800;2022-09-27T00:56:54;1.47;;;0.30;;
20138;SDS011;10230;51.502;10.800;2022-09-27T00:59:31;0.43;;;0.30;;
20138;SDS011;10230;51.502;10.800;2022-09-27T01:01:58;1.00;;;0.50;;
20138;SDS011;10230;51.502;10.800;2022-09-27T01:04:25;1.27;;;0.70;;
20138;SDS011;10230;51.502;10.800;2022-09-27T01:06:52;0.27;;;0.20;;
20138;SDS011;10230;51.502;10.800;2022-09-27T01:09:18;0.70;;;0.63;;
20138;SDS011;10230;51.502;10.800;2022-09-27T01:14:21;0.30;;;0.30;;
20138;SDS011;10230;51.502;10.800;2022-09-27T01:19:59;1.27;;;0.30;;
20138;SDS011;10230;51.502;10.800;2022-09-27T01:22:06;0.20;;;0.20;;
20138;SDS011;10230;51.502;10.800;2022-09-27T01:43:14;0.10;;;0.10;;
20138;SDS011;10230;51.502;10.800;2022-09-27T01:48:27;0.47;;;0.20;;
20138;SDS011;10230;51.502;10.800;2022-09-27T01:50:58;0.33;;;0.20;;
20138;SDS011;10230;51.502;10.800;2022-09-27T01:53:38;0.33;;;0.23;;
20138;SDS011;10230;51.502;10.800;2022-09-27T01:56:06;0.17;;;0.17;;
20138;SDS011;10230;51.502;10.800;2022-09-27T02:01:03;0.23;;;0.10;;
20138;SDS011;10230;51.502;10.800;2022-09-27T02:03:32;0.10;;;0.10;;
20138;SDS011;10230;51.502;10.800;2022-09-27T02:06:01;0.20;;;0.20;;
20138;SDS011;10230;51.502;10.800;2022-09-27T02:11:01;0.13;;;0.13;;
20138;SDS011;10230;51.502;10.800;2022-09-27T02:18:59;0.43;;;0.33;;
20138;SDS011;10230;51.502;10.800;2022-09-27T02:21:33;0.47;;;0.13;;
20138;SDS011;10230;51.502;10.800;2022-09-27T02:24:01;0.20;;;0.10;;
20138;SDS011;10230;51.502;10.800;2022-09-27T02:26:31;0.10;;;0.10;;
20138;SDS011;10230;51.502;10.800;2022-09-27T02:29:08;0.33;;;0.30;;
20138;SDS011;10230;51.502;10.800;2022-09-27T02:31:35;0.10;;;0.10;;
20138;SDS011;10230;51.502;10.800;2022-09-27T02:34:03;0.20;;;0.20;;
20138;SDS011;10230;51.502;10.800;2022-09-27T02:36:31;0.10;;;0.10;;
20138;SDS011;10230;51.502;10.800;2022-09-27T02:38:57;0.20;;;0.20;;
20138;SDS011;10230;51.502;10.800;2022-09-27T02:41:24;0.93;;;0.20;;
20138;SDS011;10230;51.502;10.800;2022-09-27T02:43:57;0.10;;;0.10;;
20138;SDS011;10230;51.502;10.800;2022-09-27T03:02:12;0.43;;;0.37;;
20138;SDS011;10230;51.502;10.800;2022-09-27T03:04:51;0.30;;;0.30;;
20138;SDS011;10230;51.502;10.800;2022-09-27T03:07:18;0.10;;;0.07;;
20138;SDS011;10230;51.502;10.800;2022-09-27T03:09:45;0.30;;;0.20;;
20138;SDS011;10230;51.502;10.800;2022-09-27T03:12:12;0.43;;;0.30;;
20138;SDS011;10230;51.502;10.800;2022-09-27T03:14:38;0.67;;;0.37;;
20138;SDS011;10230;51.502;10.800;2022-09-27T03:17:05;0.20;;;0.20;;
20138;SDS011;10230;51.502;10.800;2022-09-27T03:19:31;0.47;;;0.40;;
20138;SDS011;10230;51.502;10.800;2022-09-27T03:21:57;0.20;;;0.20;;
20138;SDS011;10230;51.502;10.800;2022-09-27T03:24:23;0.10;;;0.10;;
20138;SDS011;10230;51.502;10.800;2022-09-27T03:26:49;0.50;;;0.37;;
20138;SDS011;10230;51.502;10.800;2022-09-27T03:29:15;0.30;;;0.20;;
20138;SDS011;10230;51.502;10.800;2022-09-27T03:31:41;0.50;;;0.40;;
20138;SDS011;10230;51.502;10.800;2022-09-27T03:34:07;0.33;;;0.30;;
20138;SDS011;10230;51.502;10.800;2022-09-27T03:36:33;1.47;;;0.77;;
20138;SDS011;10230;51.502;10.800;2022-09-27T03:38:59;0.37;;;0.20;;
20138;SDS011;10230;51.502;10.800;2022-09-27T03:41:25;0.30;;;0.30;;
20138;SDS011;10230;51.502;10.800;2022-09-27T03:43:51;1.03;;;0.53;;
20138;SDS011;10230;51.502;10.800;2022-09-27T03:46:20;0.50;;;0.40;;
20138;SDS011;10230;51.502;10.800;2022-09-27T03:48:46;1.60;;;0.73;;
20138;SDS011;10230;51.502;10.800;2022-09-27T03:51:12;4.73;;;2.73;;
20138;SDS011;10230;51.502;10.800;2022-09-27T03:53:38;1.60;;;0.77;;
20138;SDS011;10230;51.502;10.800;2022-09-27T03:56:04;2.03;;;0.80;;
20138;SDS011;10230;51.502;10.800;2022-09-27T03:58:30;0.43;;;0.40;;
20138;SDS011;10230;51.502;10.800;2022-09-27T04:00:56;0.67;;;0.50;;
20138;SDS011;10230;51.502;10.800;2022-09-27T04:03:22;0.30;;;0.30;;
20138;SDS011;10230;51.502;10.800;2022-09-27T04:05:51;0.87;;;0.40;;
20138;SDS011;10230;51.502;10.800;2022-09-27T04:08:17;0.43;;;0.40;;
20138;SDS011;10230;51.502;10.800;2022-09-27T04:10:43;1.67;;;0.43;;
20138;SDS011;10230;51.502;10.800;2022-09-27T04:13:09;1.03;;;0.90;;
20138;SDS011;10230;51.502;10.800;2022-09-27T04:15:35;0.93;;;0.70;;
20138;SDS011;10230;51.502;10.800;2022-09-27T04:18:03;0.90;;;0.57;;
20138;SDS011;10230;51.502;10.800;2022-09-27T04:20:29;2.27;;;0.80;;
20138;SDS011;10230;51.502;10.800;2022-09-27T04:22:55;1.03;;;0.80;;
20138;SDS011;10230;51.502;10.800;2022-09-27T04:25:21;0.70;;;0.67;;
20138;SDS011;10230;51.502;10.800;2022-09-27T04:27:47;1.50;;;0.80;;
20138;SDS011;10230;51.502;10.800;2022-09-27T04:30:16;1.53;;;1.10;;
20138;SDS011;10230;51.502;10.800;2022-09-27T04:32:45;1.23;;;0.70;;
20138;SDS011;10230;51.502;10.800;2022-09-27T04:35:11;1.33;;;0.70;;
20138;SDS011;10230;51.502;10.800;2022-09-27T04:37:56;0.80;;;0.50;;
20138;SDS011;10230;51.502;10.800;2022-09-27T04:40:22;0.77;;;0.50;;
20138;SDS011;10230;51.502;10.800;2022-09-27T04:42:48;1.53;;;0.70;;
20138;SDS011;10230;51.502;10.800;2022-09-27T04:45:15;1.13;;;0.30;;
20138;SDS011;10230;51.502;10.800;2022-09-27T04:47:45;0.30;;;0.30;;
20138;SDS011;10230;51.502;10.800;2022-09-27T04:50:11;1.03;;;0.60;;
20138;SDS011;10230;51.502;10.800;2022-09-27T04:52:37;0.77;;;0.40;;
20138;SDS011;10230;51.502;10.800;2022-09-27T04:55:04;0.60;;;0.40;;
20138;SDS011;10230;51.502;10.800;2022-09-27T04:57:31;0.70;;;0.70;;
20138;SDS011;10230;51.502;10.800;2022-09-27T04:59:57;0.37;;;0.37;;
20138;SDS011;10230;51.502;10.800;2022-09-27T05:02:24;0.50;;;0.47;;
20138;SDS011;10230;51.502;10.800;2022-09-27T05:04:51;1.03;;;0.60;;
20138;SDS011;10230;51.502;10.800;2022-09-27T05:07:17;1.30;;;0.50;;
20138;SDS011;10230;51.502;10.800;2022-09-27T05:09:43;1.07;;;0.73;;
20138;SDS011;10230;51.502;10.800;2022-09-27T05:12:09;1.07;;;0.70;;
20138;SDS011;10230;51.502;10.800;2022-09-27T05:14:37;2.07;;;0.93;;
20138;SDS011;10230;51.502;10.800;2022-09-27T05:17:03;0.77;;;0.63;;
20138;SDS011;10230;51.502;10.800;2022-09-27T05:19:31;1.63;;;1.00;;
20138;SDS011;10230;51.502;10.800;2022-09-27T05:21:58;1.10;;;0.80;;
20138;SDS011;10230;51.502;10.800;2022-09-27T05:24:24;1.43;;;1.00;;
20138;SDS011;10230;51.502;10.800;2022-09-27T05:26:52;3.37;;;1.00;;
20138;SDS011;10230;51.502;10.800;2022-09-27T05:29:18;1.03;;;0.90;;
20138;SDS011;10230;51.502;10.800;2022-09-27T05:31:44;2.07;;;1.40;;
20138;SDS011;10230;51.502;10.800;2022-09-27T05:34:11;1.37;;;0.87;;
20138;SDS011;10230;51.502;10.800;2022-09-27T05:36:37;1.20;;;1.10;;
20138;SDS011;10230;51.502;10.800;2022-09-27T05:39:03;1.53;;;1.00;;
20138;SDS011;10230;51.502;10.800;2022-09-27T05:41:31;1.60;;;1.20;;
20138;SDS011;10230;51.502;10.800;2022-09-27T05:43:57;3.37;;;1.30;;
20138;SDS011;10230;51.502;10.800;2022-09-27T05:46:23;3.23;;;1.27;;
20138;SDS011;10230;51.502;10.800;2022-09-27T05:48:49;3.77;;;1.50;;
20138;SDS011;10230;51.502;10.800;2022-09-27T05:51:15;3.87;;;1.33;;
20138;SDS011;10230;51.502;10.800;2022-09-27T05:53:43;1.50;;;1.07;;
20138;SDS011;10230;51.502;10.800;2022-09-27T05:56:09;1.47;;;0.80;;
20138;SDS011;10230;51.502;10.800;2022-09-27T05:58:35;1.63;;;1.07;;
20138;SDS011;10230;51.502;10.800;2022-09-27T06:01:01;1.20;;;0.83;;
20138;SDS011;10230;51.502;10.800;2022-09-27T06:03:30;0.97;;;0.67;;
20138;SDS011;10230;51.502;10.800;2022-09-27T06:06:00;1.47;;;0.60;;
20138;SDS011;10230;51.502;10.800;2022-09-27T06:08:26;0.73;;;0.50;;
20138;SDS011;10230;51.502;10.800;2022-09-27T06:10:58;0.30;;;0.30;;
20138;SDS011;10230;51.502;10.800;2022-09-27T06:13:25;0.90;;;0.60;;
20138;SDS011;10230;51.502;10.800;2022-09-27T06:15:51;0.70;;;0.43;;
20138;SDS011;10230;51.502;10.800;2022-09-27T06:18:17;1.30;;;0.30;;
20138;SDS011;10230;51.502;10.800;2022-09-27T06:20:43;0.53;;;0.50;;
20138;SDS011;10230;51.502;10.800;2022-09-27T06:23:13;0.80;;;0.73;;
20138;SDS011;10230;51.502;10.800;2022-09-27T06:25:40;0.67;;;0.50;;
20138;SDS011;10230;51.502;10.800;2022-09-27T06:28:06;1.73;;;0.50;;
20138;SDS011;10230;51.502;10.800;2022-09-27T06:30:36;0.60;;;0.30;;
20138;SDS011;10230;51.502;10.800;2022-09-27T06:33:03;0.17;;;0.17;;
20138;SDS011;10230;51.502;10.800;2022-09-27T06:35:29;0.30;;;0.30;;
20138;SDS011;10230;51.502;10.800;2022-09-27T06:37:55;0.60;;;0.30;;
20138;SDS011;10230;51.502;10.800;2022-09-27T06:40:22;0.50;;;0.23;;
20138;SDS011;10230;51.502;10.800;2022-09-27T06:42:52;0.57;;;0.33;;
20138;SDS011;10230;51.502;10.800;2022-09-27T06:45:18;0.40;;;0.30;;
20138;SDS011;10230;51.502;10.800;2022-09-27T06:47:44;1.23;;;0.30;;
20138;SDS011;10230;51.502;10.800;2022-09-27T06:50:11;0.13;;;0.13;;
20138;SDS011;10230;51.502;10.800;2022-09-27T06:52:37;0.33;;;0.30;;
20138;SDS011;10230;51.502;10.800;2022-09-27T06:55:03;0.77;;;0.33;;
20138;SDS011;10230;51.502;10.800;2022-09-27T06:57:30;0.70;;;0.43;;
20138;SDS011;10230;51.502;10.800;2022-09-27T07:00:15;1.60;;;0.57;;
20138;SDS011;10230;51.502;10.800;2022-09-27T07:02:53;1.73;;;0.40;;
20138;SDS011;10230;51.502;10.800;2022-09-27T07:05:22;0.43;;;0.20;;
20138;SDS011;10230;51.502;10.800;2022-09-27T07:07:49;1.50;;;1.17;;
20138;SDS011;10230;51.502;10.800;2022-09-27T07:10:17;0.10;;;0.10;;
20138;SDS011;10230;51.502;10.800;2022-09-27T07:12:43;0.50;;;0.30;;
20138;SDS011;10230;51.502;10.800;2022-09-27T07:15:12;0.40;;;0.20;;
20138;SDS011;10230;51.502;10.800;2022-09-27T07:17:39;0.60;;;0.27;;
20138;SDS011;10230;51.502;10.800;2022-09-27T07:20:06;0.20;;;0.10;;
20138;SDS011;10230;51.502;10.800;2022-09-27T07:22:38;2.10;;;0.93;;
20138;SDS011;10230;51.502;10.800;2022-09-27T07:25:05;0.20;;;0.20;;
20138;SDS011;10230;51.502;10.800;2022-09-27T07:27:31;1.20;;;0.30;;
20138;SDS011;10230;51.502;10.800;2022-09-27T07:29:59;0.87;;;0.53;;
20138;SDS011;10230;51.502;10.800;2022-09-27T07:32:25;0.83;;;0.40;;
20138;SDS011;10230;51.502;10.800;2022-09-27T07:34:51;1.17;;;0.30;;
20138;SDS011;10230;51.502;10.800;2022-09-27T07:37:17;1.20;;;0.47;;
20138;SDS011;10230;51.502;10.800;2022-09-27T07:39:43;0.77;;;0.23;;
20138;SDS011;10230;51.502;10.800;2022-09-27T07:42:09;0.70;;;0.30;;
20138;SDS011;10230;51.502;10.800;2022-09-27T07:44:35;0.17;;;0.10;;
20138;SDS011;10230;51.502;10.800;2022-09-27T07:47:05;0.50;;;0.10;;
20138;SDS011;10230;51.502;10.800;2022-09-27T07:49:31;1.17;;;0.17;;
20138;SDS011;10230;51.502;10.800;2022-09-27T07:51:57;0.10;;;0.10;;
20138;SDS011;10230;51.502;10.800;2022-09-27T07:54:23;1.57;;;0.60;;
20138;SDS011;10230;51.502;10.800;2022-09-27T07:56:49;0.63;;;0.40;;
20138;SDS011;10230;51.502;10.800;2022-09-27T07:59:15;0.27;;;0.17;;
20138;SDS011;10230;51.502;10.800;2022-09-27T08:01:41;0.60;;;0.20;;
20138;SDS011;10230;51.502;10.800;2022-09-27T08:04:07;0.53;;;0.10;;
20138;SDS011;10230;51.502;10.800;2022-09-27T08:06:33;0.73;;;0.30;;
20138;SDS011;10230;51.502;10.800;2022-09-27T08:08:59;1.13;;;0.30;;
20138;SDS011;10230;51.502;10.800;2022-09-27T08:11:27;1.27;;;0.30;;
20138;SDS011;10230;51.502;10.800;2022-09-27T08:13:53;2.50;;;0.40;;
20138;SDS011;10230;51.502;10.800;2022-09-27T08:16:21;0.40;;;0.40;;
20138;SDS011;10230;51.502;10.800;2022-09-27T08:18:47;0.23;;;0.17;;
20138;SDS011;10230;51.502;10.800;2022-09-27T08:21:13;1.07;;;0.50;;
20138;SDS011;10230;51.502;10.800;2022-09-27T08:23:39;1.57;;;1.47;;
20138;SDS011;10230;51.502;10.800;2022-09-27T08:26:06;0.83;;;0.43;;
20138;SDS011;10230;51.502;10.800;2022-09-27T08:28:32;1.83;;;0.83;;
20138;SDS011;10230;51.502;10.800;2022-09-27T08:30:58;2.93;;;0.83;;
20138;SDS011;10230;51.502;10.800;2022-09-27T08:33:24;0.60;;;0.27;;
20138;SDS011;10230;51.502;10.800;2022-09-27T08:35:51;0.90;;;0.40;;
20138;SDS011;10230;51.502;10.800;2022-09-27T08:38:17;0.43;;;0.27;;
20138;SDS011;10230;51.502;10.800;2022-09-27T08:40:49;2.00;;;0.20;;
20138;SDS011;10230;51.502;10.800;2022-09-27T08:43:33;1.00;;;0.50;;
20138;SDS011;10230;51.502;10.800;2022-09-27T08:48:43;1.60;;;0.50;;
20138;SDS011;10230;51.502;10.800;2022-09-27T08:51:14;0.37;;;0.20;;
20138;SDS011;10230;51.502;10.800;2022-09-27T08:53:42;0.63;;;0.53;;
20138;SDS011;10230;51.502;10.800;2022-09-27T08:56:12;0.40;;;0.30;;
20138;SDS011;10230;51.502;10.800;2022-09-27T08:58:59;0.63;;;0.43;;
20138;SDS011;10230;51.502;10.800;2022-09-27T09:01:26;2.43;;;0.80;;
20138;SDS011;10230;51.502;10.800;2022-09-27T09:03:53;0.67;;;0.20;;
20138;SDS011;10230;51.502;10.800;2022-09-27T09:14:41;0.90;;;0.20;;
20138;SDS011;10230;51.502;10.800;2022-09-27T09:17:34;0.60;;;0.30;;
20138;SDS011;10230;51.502;10.800;2022-09-27T09:22:46;0.40;;;0.28;;
20138;SDS011;10230;51.502;10.800;2022-09-27T09:30:22;0.63;;;0.40;;
20138;SDS011;10230;51.502;10.800;2022-09-27T09:35:25;1.00;;;0.40;;
20138;SDS011;10230;51.502;10.800;2022-09-27T09:37:53;0.30;;;0.30;;
20138;SDS011;10230;51.502;10.800;2022-09-27T09:40:25;0.70;;;0.30;;
20138;SDS011;10230;51.502;10.800;2022-09-27T09:45:29;0.63;;;0.45;;
20138;SDS011;10230;51.502;10.800;2022-09-27T09:48:02;0.40;;;0.30;;
20138;SDS011;10230;51.502;10.800;2022-09-27T09:55:59;1.33;;;0.30;;
20138;SDS011;10230;51.502;10.800;2022-09-27T09:58:28;0.40;;;0.35;;
20138;SDS011;10230;51.502;10.800;2022-09-27T10:00:58;0.50;;;0.30;;
20138;SDS011;10230;51.502;10.800;2022-09-27T10:03:25;1.48;;;0.77;;
20138;SDS011;10230;51.502;10.800;2022-09-27T10:05:52;0.93;;;0.30;;
20138;SDS011;10230;51.502;10.800;2022-09-27T10:08:19;1.00;;;0.30;;
20138;SDS011;10230;51.502;10.800;2022-09-27T10:10:45;0.65;;;0.50;;
20138;SDS011;10230;51.502;10.800;2022-09-27T10:13:14;1.38;;;0.30;;
20138;SDS011;10230;51.502;10.800;2022-09-27T10:15:41;0.88;;;0.50;;
20138;SDS011;10230;51.502;10.800;2022-09-27T10:18:08;1.45;;;0.22;;
20138;SDS011;10230;51.502;10.800;2022-09-27T10:20:48;0.75;;;0.13;;
20138;SDS011;10230;51.502;10.800;2022-09-27T10:23:16;0.57;;;0.22;;
20138;SDS011;10230;51.502;10.800;2022-09-27T10:25:49;0.13;;;0.10;;
20138;SDS011;10230;51.502;10.800;2022-09-27T10:31:02;1.10;;;0.40;;
20138;SDS011;10230;51.502;10.800;2022-09-27T10:33:28;0.93;;;0.30;;
20138;SDS011;10230;51.502;10.800;2022-09-27T10:35:55;1.73;;;0.35;;
20138;SDS011;10230;51.502;10.800;2022-09-27T10:38:23;1.88;;;0.20;;
20138;SDS011;10230;51.502;10.800;2022-09-27T10:40:50;1.42;;;0.40;;
20138;SDS011;10230;51.502;10.800;2022-09-27T10:43:33;0.60;;;0.30;;
20138;SDS011;10230;51.502;10.800;2022-09-27T10:46:02;0.30;;;0.30;;
20138;SDS011;10230;51.502;10.800;2022-09-27T10:48:29;2.63;;;0.90;;
20138;SDS011;10230;51.502;10.800;2022-09-27T10:50:56;1.02;;;0.40;;
20138;SDS011;10230;51.502;10.800;2022-09-27T10:53:23;0.65;;;0.22;;
20138;SDS011;10230;51.502;10.800;2022-09-27T10:55:49;0.80;;;0.43;;
20138;SDS011;10230;51.502;10.800;2022-09-27T10:58:37;0.88;;;0.35;;
20138;SDS011;10230;51.502;10.800;2022-09-27T11:01:03;1.02;;;0.63;;
20138;SDS011;10230;51.502;10.800;2022-09-27T11:03:30;2.42;;;0.65;;
20138;SDS011;10230;51.502;10.800;2022-09-27T11:05:57;1.13;;;0.60;;
20138;SDS011;10230;51.502;10.800;2022-09-27T11:08:33;0.90;;;0.43;;
20138;SDS011;10230;51.502;10.800;2022-09-27T11:13:27;1.05;;;0.52;;
20138;SDS011;10230;51.502;10.800;2022-09-27T11:16:03;0.63;;;0.30;;
20138;SDS011;10230;51.502;10.800;2022-09-27T11:26:40;0.43;;;0.40;;
20138;SDS011;10230;51.502;10.800;2022-09-27T11:29:56;0.50;;;0.30;;
20138;SDS011;10230;51.502;10.800;2022-09-27T11:34:32;0.30;;;0.30;;
20138;SDS011;10230;51.502;10.800;2022-09-27T11:39:43;1.60;;;0.35;;
20138;SDS011;10230;51.502;10.800;2022-09-27T11:42:31;0.85;;;0.40;;
20138;SDS011;10230;51.502;10.800;2022-09-27T11:52:55;0.80;;;0.32;;
20138;SDS011;10230;51.502;10.800;2022-09-27T11:55:46;0.75;;;0.60;;
20138;SDS011;10230;51.502;10.800;2022-09-27T12:01:08;2.03;;;0.70;;
20138;SDS011;10230;51.502;10.800;2022-09-27T12:09:19;1.08;;;0.73;;
20138;SDS011;10230;51.502;10.800;2022-09-27T12:14:01;0.90;;;0.70;;
20138;SDS011;10230;51.502;10.800;2022-09-27T12:16:27;2.58;;;0.95;;
20138;SDS011;10230;51.502;10.800;2022-09-27T12:18:55;3.33;;;1.50;;
20138;SDS011;10230;51.502;10.800;2022-09-27T12:21:22;2.20;;;1.15;;
20138;SDS011;10230;51.502;10.800;2022-09-27T12:23:49;0.93;;;0.80;;
20138;SDS011;10230;51.502;10.800;2022-09-27T12:26:24;1.10;;;0.77;;
20138;SDS011;10230;51.502;10.800;2022-09-27T12:31:50;0.70;;;0.45;;
20138;SDS011;10230;51.502;10.800;2022-09-27T12:36:46;0.50;;;0.50;;
20138;SDS011;10230;51.502;10.800;2022-09-27T12:39:20;0.60;;;0.60;;
20138;SDS011;10230;51.502;10.800;2022-09-27T12:41:53;2.70;;;0.97;;
20138;SDS011;10230;51.502;10.800;2022-09-27T12:44:26;1.33;;;0.50;;
20138;SDS011;10230;51.502;10.800;2022-09-27T12:47:05;2.10;;;0.60;;
20138;SDS011;10230;51.502;10.800;2022-09-27T12:49:45;1.37;;;0.43;;
20138;SDS011;10230;51.502;10.800;2022-09-27T12:52:17;1.33;;;0.63;;
20138;SDS011;10230;51.502;10.800;2022-09-27T13:10:52;1.98;;;0.43;;
20138;SDS011;10230;51.502;10.800;2022-09-27T13:19:44;1.55;;;0.50;;
20138;SDS011;10230;51.502;10.800;2022-09-27T13:24:56;1.30;;;0.52;;
20138;SDS011;10230;51.502;10.800;2022-09-27T13:32:33;2.10;;;0.30;;
20138;SDS011;10230;51.502;10.800;2022-09-27T13:35:20;0.32;;;0.20;;
20138;SDS011;10230;51.502;10.800;2022-09-27T13:40:22;1.25;;;0.30;;
20138;SDS011;10230;51.502;10.800;2022-09-27T13:43:24;0.65;;;0.17;;
20138;SDS011;10230;51.502;10.800;2022-09-27T13:52:04;1.50;;;0.20;;
20138;SDS011;10230;51.502;10.800;2022-09-27T13:55:02;0.35;;;0.10;;
20138;SDS011;10230;51.502;10.800;2022-09-27T13:57:41;1.23;;;0.30;;
20138;SDS011;10230;51.502;10.800;2022-09-27T14:06:31;1.55;;;0.50;;
20138;SDS011;10230;51.502;10.800;2022-09-27T14:09:05;1.27;;;0.50;;
20138;SDS011;10230;51.502;10.800;2022-09-27T14:12:02;1.20;;;0.40;;
20138;SDS011;10230;51.502;10.800;2022-09-27T14:14:31;0.20;;;0.20;;
20138;SDS011;10230;51.502;10.800;2022-09-27T14:16:58;0.40;;;0.30;;
20138;SDS011;10230;51.502;10.800;2022-09-27T14:19:25;1.10;;;0.32;;
20138;SDS011;10230;51.502;10.800;2022-09-27T14:22:11;0.57;;;0.30;;
20138;SDS011;10230;51.502;10.800;2022-09-27T14:29:46;0.32;;;0.32;;
20138;SDS011;10230;51.502;10.800;2022-09-27T14:32:14;0.45;;;0.20;;
20138;SDS011;10230;51.502;10.800;2022-09-27T14:34:41;0.75;;;0.47;;
20138;SDS011;10230;51.502;10.800;2022-09-27T14:37:40;0.30;;;0.20;;
20138;SDS011;10230;51.502;10.800;2022-09-27T14:42:30;1.00;;;0.50;;
20138;SDS011;10230;51.502;10.800;2022-09-27T14:45:02;0.65;;;0.38;;
20138;SDS011;10230;51.502;10.800;2022-09-27T14:47:29;0.40;;;0.30;;
20138;SDS011;10230;51.502;10.800;2022-09-27T14:50:11;1.40;;;0.82;;
20138;SDS011;10230;51.502;10.800;2022-09-27T14:52:38;0.57;;;0.50;;
20138;SDS011;10230;51.502;10.800;2022-09-27T14:55:11;0.47;;;0.40;;
20138;SDS011;10230;51.502;10.800;2022-09-27T14:57:39;0.63;;;0.20;;
20138;SDS011;10230;51.502;10.800;2022-09-27T15:02:41;1.23;;;0.55;;
20138;SDS011;10230;51.502;10.800;2022-09-27T15:05:14;0.68;;;0.68;;
20138;SDS011;10230;51.502;10.800;2022-09-27T15:07:42;1.67;;;0.40;;
20138;SDS011;10230;51.502;10.800;2022-09-27T15:10:18;0.55;;;0.30;;
20138;SDS011;10230;51.502;10.800;2022-09-27T15:12:45;0.57;;;0.30;;
20138;SDS011;10230;51.502;10.800;2022-09-27T15:15:12;0.85;;;0.40;;
20138;SDS011;10230;51.502;10.800;2022-09-27T15:17:41;0.95;;;0.40;;
20138;SDS011;10230;51.502;10.800;2022-09-27T15:20:18;1.38;;;0.60;;
20138;SDS011;10230;51.502;10.800;2022-09-27T15:22:46;1.13;;;0.50;;
20138;SDS011;10230;51.502;10.800;2022-09-27T15:27:44;1.60;;;0.85;;
20138;SDS011;10230;51.502;10.800;2022-09-27T15:30:23;1.20;;;0.70;;
20138;SDS011;10230;51.502;10.800;2022-09-27T15:32:51;0.30;;;0.30;;
20138;SDS011;10230;51.502;10.800;2022-09-27T15:35:20;0.55;;;0.50;;
20138;SDS011;10230;51.502;10.800;2022-09-27T15:37:47;0.43;;;0.43;;
20138;SDS011;10230;51.502;10.800;2022-09-27T15:42:56;0.68;;;0.28;;
20138;SDS011;10230;51.502;10.800;2022-09-27T15:45:34;0.60;;;0.33;;
20138;SDS011;10230;51.502;10.800;2022-09-27T15:48:15;0.50;;;0.30;;
20138;SDS011;10230;51.502;10.800;2022-09-27T15:50:42;0.47;;;0.30;;
20138;SDS011;10230;51.502;10.800;2022-09-27T15:53:08;1.00;;;0.40;;
20138;SDS011;10230;51.502;10.800;2022-09-27T15:55:39;0.90;;;0.35;;
20138;SDS011;10230;51.502;10.800;2022-09-27T15:58:07;1.05;;;0.20;;
20138;SDS011;10230;51.502;10.800;2022-09-27T16:00:39;1.65;;;0.38;;
20138;SDS011;10230;51.502;10.800;2022-09-27T16:03:14;0.67;;;0.23;;
20138;SDS011;10230;51.502;10.800;2022-09-27T16:05:40;0.50;;;0.50;;
20138;SDS011;10230;51.502;10.800;2022-09-27T16:08:08;0.40;;;0.30;;
20138;SDS011;10230;51.502;10.800;2022-09-27T16:10:35;0.33;;;0.33;;
20138;SDS011;10230;51.502;10.800;2022-09-27T16:13:02;0.27;;;0.23;;
20138;SDS011;10230;51.502;10.800;2022-09-27T16:15:28;0.97;;;0.50;;
20138;SDS011;10230;51.502;10.800;2022-09-27T16:17:54;0.50;;;0.30;;
20138;SDS011;10230;51.502;10.800;2022-09-27T16:20:22;0.63;;;0.63;;
20138;SDS011;10230;51.502;10.800;2022-09-27T16:22:49;0.57;;;0.30;;
20138;SDS011;10230;51.502;10.800;2022-09-27T16:25:15;2.05;;;0.70;;
20138;SDS011;10230;51.502;10.800;2022-09-27T16:27:42;0.90;;;0.67;;
20138;SDS011;10230;51.502;10.800;2022-09-27T16:30:08;0.40;;;0.37;;
20138;SDS011;10230;51.502;10.800;2022-09-27T16:32:38;1.13;;;0.77;;
20138;SDS011;10230;51.502;10.800;2022-09-27T16:35:05;1.67;;;0.60;;
20138;SDS011;10230;51.502;10.800;2022-09-27T16:37:32;0.47;;;0.40;;
20138;SDS011;10230;51.502;10.800;2022-09-27T16:39:58;0.67;;;0.47;;
20138;SDS011;10230;51.502;10.800;2022-09-27T16:42:24;0.97;;;0.60;;
20138;SDS011;10230;51.502;10.800;2022-09-27T16:44:51;0.70;;;0.40;;
20138;SDS011;10230;51.502;10.800;2022-09-27T16:47:18;0.30;;;0.30;;
20138;SDS011;10230;51.502;10.800;2022-09-27T16:49:44;0.50;;;0.30;;
20138;SDS011;10230;51.502;10.800;2022-09-27T16:52:29;0.73;;;0.50;;
20138;SDS011;10230;51.502;10.800;2022-09-27T16:54:57;2.07;;;1.00;;
20138;SDS011;10230;51.502;10.800;2022-09-27T16:57:23;0.53;;;0.53;;
20138;SDS011;10230;51.502;10.800;2022-09-27T16:59:49;0.73;;;0.53;;
20138;SDS011;10230;51.502;10.800;2022-09-27T17:02:15;0.80;;;0.40;;
20138;SDS011;10230;51.502;10.800;2022-09-27T17:04:42;1.10;;;0.50;;
20138;SDS011;10230;51.502;10.800;2022-09-27T17:07:08;0.70;;;0.67;;
20138;SDS011;10230;51.502;10.800;2022-09-27T17:09:34;1.10;;;0.90;;
20138;SDS011;10230;51.502;10.800;2022-09-27T17:12:00;0.87;;;0.50;;
20138;SDS011;10230;51.502;10.800;2022-09-27T17:14:26;1.37;;;0.87;;
20138;SDS011;10230;51.502;10.800;2022-09-27T17:16:52;0.80;;;0.80;;
20138;SDS011;10230;51.502;10.800;2022-09-27T17:19:18;1.23;;;1.07;;
20138;SDS011;10230;51.502;10.800;2022-09-27T17:21:45;1.27;;;0.87;;
20138;SDS011;10230;51.502;10.800;2022-09-27T17:24:11;1.57;;;1.10;;
20138;SDS011;10230;51.502;10.800;2022-09-27T17:26:37;1.43;;;1.10;;
20138;SDS011;10230;51.502;10.800;2022-09-27T17:29:03;1.17;;;1.00;;
20138;SDS011;10230;51.502;10.800;2022-09-27T17:31:30;3.97;;;1.87;;
20138;SDS011;10230;51.502;10.800;2022-09-27T17:33:58;2.67;;;1.37;;
20138;SDS011;10230;51.502;10.800;2022-09-27T17:36:26;2.90;;;1.10;;
20138;SDS011;10230;51.502;10.800;2022-09-27T17:38:53;1.87;;;1.40;;
20138;SDS011;10230;51.502;10.800;2022-09-27T17:41:24;1.80;;;1.37;;
20138;SDS011;10230;51.502;10.800;2022-09-27T17:43:59;2.20;;;1.30;;
20138;SDS011;10230;51.502;10.800;2022-09-27T17:46:30;1.50;;;1.00;;
20138;SDS011;10230;51.502;10.800;2022-09-27T17:48:56;1.33;;;0.97;;
20138;SDS011;10230;51.502;10.800;2022-09-27T17:51:41;1.60;;;1.17;;